Time;durP1;ratioP1;P1;durP2;ratioP2;P2;SDS_P1;SDS_P2;PMS_P1;PMS_P2;Temp;Humidity;BMP_temperature;BMP_pressure;BME280_temperature;BME280_humidity;BME280_pressure;Samples;Min_cycle;Max_cycle;Signal;HPM_P1;HPM_P2
2023/03/15 00:00:45;;;;;;;1.10;1.00;;;;;;;4.58;100.00;95639.75;4990541;28;101889;-62
2023/03/15 00:03:13;;;;;;;34.60;17.47;;;;;;;4.58;100.00;95639.75;4977597;28;102562;-62
2023/03/15 00:05:42;;;;;;;74.87;33.30;;;;;;;4.54;100.00;95640.44;4971683;28;102887;-62
2023/03/15 00:08:11;;;;;;;3.37;2.17;;;;;;;4.61;100.00;95644.56;4967328;28;102205;-62
2023/03/15 00:10:40;;;;;;;9.00;6.13;;;;;;;4.66;100.00;95649.13;4960489;28;102486;-62
2023/03/15 00:13:10;;;;;;;70.57;34.40;;;;;;;4.68;100.00;95642.59;4974313;28;105357;-62
2023/03/15 00:15:37;;;;;;;77.93;35.77;;;;;;;4.67;100.00;95642.81;4971934;28;103667;-62
2023/03/15 00:18:04;;;;;;;80.43;36.57;;;;;;;4.68;100.00;95644.41;4966404;28;105409;-62
2023/03/15 00:20:32;;;;;;;4.20;2.53;;;;;;;4.74;100.00;95643.53;4957499;28;101869;-62
2023/03/15 00:23:00;;;;;;;6.07;3.53;;;;;;;4.73;100.00;95634.00;4972760;28;102283;-62
2023/03/15 00:25:28;;;;;;;3.37;2.03;;;;;;;4.63;100.00;95626.69;4968585;28;105560;-62
2023/03/15 00:27:55;;;;;;;9.43;5.77;;;;;;;4.64;100.00;95630.91;4965477;28;101825;-62
2023/03/15 00:30:23;;;;;;;1.33;1.20;;;;;;;4.69;100.00;95622.34;4968264;28;105488;-62
2023/03/15 00:32:52;;;;;;;1.17;0.93;;;;;;;4.75;100.00;95624.03;4964304;28;105351;-62
2023/03/15 00:35:20;;;;;;;3.47;2.50;;;;;;;4.77;100.00;95612.25;4956423;28;101824;-62
2023/03/15 00:37:47;;;;;;;2.10;1.90;;;;;;;4.73;100.00;95605.03;4973461;28;102473;-62
2023/03/15 00:40:14;;;;;;;3.43;2.37;;;;;;;4.77;100.00;95622.78;4990803;28;102068;-62
2023/03/15 00:42:40;;;;;;;0.97;0.90;;;;;;;4.68;100.00;95623.34;4991783;28;102249;-62
2023/03/15 00:45:09;;;;;;;1.03;0.90;;;;;;;4.65;100.00;95624.63;4990396;28;106013;-62
2023/03/15 00:47:38;;;;;;;1.53;1.43;;;;;;;4.71;100.00;95620.28;4991818;28;101823;-62
2023/03/15 00:50:05;;;;;;;1.27;0.90;;;;;;;4.76;100.00;95623.78;4992044;28;102867;-62
2023/03/15 00:52:35;;;;;;;5.93;3.57;;;;;;;4.79;100.00;95625.16;4989756;28;103769;-62
2023/03/15 00:55:03;;;;;;;2.20;1.80;;;;;;;4.83;100.00;95621.03;4990773;28;102303;-62
2023/03/15 00:57:32;;;;;;;3.80;1.40;;;;;;;4.78;100.00;95623.56;4979315;28;104713;-62
2023/03/15 01:00:03;;;;;;;3.20;1.60;;;;;;;4.77;100.00;95620.16;4951078;28;102021;-62
2023/03/15 01:02:30;;;;;;;2.17;1.00;;;;;;;4.99;100.00;95615.03;4964224;28;102894;-62
2023/03/15 01:05:00;;;;;;;1.00;0.90;;;;;;;5.08;100.00;95622.31;4979082;28;102581;-62
2023/03/15 01:07:27;;;;;;;1.10;1.00;;;;;;;5.05;100.00;95620.19;4990064;28;102031;-62
2023/03/15 01:09:54;;;;;;;1.40;1.13;;;;;;;5.05;100.00;95619.34;4979026;28;105221;-62
2023/03/15 01:12:21;;;;;;;1.63;1.10;;;;;;;5.05;100.00;95619.34;4950638;28;105134;-62
2023/03/15 01:14:48;;;;;;;2.30;1.67;;;;;;;5.04;100.00;95615.13;4960383;28;101998;-62
2023/03/15 01:17:16;;;;;;;1.73;0.97;;;;;;;5.01;100.00;95613.75;4959868;28;104933;-62
2023/03/15 01:19:42;;;;;;;1.83;1.00;;;;;;;5.02;100.00;95609.31;4950723;28;101884;-62
2023/03/15 01:22:11;;;;;;;1.80;0.80;;;;;;;5.03;100.00;95606.41;4967849;28;105238;-62
2023/03/15 01:24:38;;;;;;;2.63;1.00;;;;;;;4.97;100.00;95599.44;4989677;28;105338;-62
2023/03/15 01:27:05;;;;;;;2.50;1.10;;;;;;;4.94;100.00;95593.84;4979326;28;101972;-62
2023/03/15 01:29:32;;;;;;;1.47;1.00;;;;;;;4.88;100.00;95589.53;4966191;28;105859;-62
2023/03/15 01:32:01;;;;;;;2.03;0.90;;;;;;;4.90;100.00;95584.81;4969513;28;105065;-62
2023/03/15 01:34:28;;;;;;;2.67;1.30;;;;;;;4.89;100.00;95576.13;4970283;28;101956;-62
2023/03/15 01:36:55;;;;;;;2.33;1.20;;;;;;;4.88;100.00;95560.56;4991080;28;102828;-62
2023/03/15 01:39:28;;;;;;;3.30;1.10;;;;;;;4.89;100.00;95560.31;4969546;28;104224;-62
2023/03/15 01:41:55;;;;;;;1.77;1.47;;;;;;;4.87;100.00;95566.88;4951891;28;102271;-62
2023/03/15 01:44:23;;;;;;;1.87;1.00;;;;;;;4.83;100.00;95579.72;4967472;28;103703;-62
2023/03/15 01:46:51;;;;;;;0.90;0.80;;;;;;;4.76;100.00;95578.22;4990079;28;102025;-62
2023/03/15 01:49:25;;;;;;;2.03;0.80;;;;;;;4.68;100.00;95589.13;4989760;28;105369;-62
2023/03/15 01:51:57;;;;;;;2.63;1.07;;;;;;;4.72;100.00;95582.38;4990567;28;103084;-62
2023/03/15 01:54:31;;;;;;;3.23;1.10;;;;;;;4.63;100.00;95610.88;4989526;28;102179;-62
2023/03/15 01:57:02;;;;;;;1.30;1.20;;;;;;;4.53;100.00;95637.00;4989839;28;103546;-62
2023/03/15 01:59:32;;;;;;;1.40;0.90;;;;;;;4.44;100.00;95670.00;4965879;28;105529;-62
2023/03/15 02:02:00;;;;;;;1.37;1.10;;;;;;;3.97;100.00;95725.41;4954577;28;101914;-62
2023/03/15 02:04:34;;;;;;;1.03;0.90;;;;;;;3.45;100.00;95711.19;4966166;28;105506;-62
2023/03/15 02:07:03;;;;;;;1.87;0.80;;;;;;;3.23;100.00;95714.53;4952408;28;101759;-62
2023/03/15 02:09:38;;;;;;;1.57;1.00;;;;;;;2.82;100.00;95711.75;4969703;28;105344;-62
2023/03/15 02:12:06;;;;;;;1.13;0.93;;;;;;;2.82;100.00;95699.44;4985562;28;102507;-62
2023/03/15 02:14:34;;;;;;;1.17;0.77;;;;;;;2.85;100.00;95692.94;4989497;28;101824;-62
2023/03/15 02:17:03;;;;;;;0.93;0.70;;;;;;;2.87;100.00;95688.28;4987961;28;104408;-62
2023/03/15 02:19:41;;;;;;;0.80;0.80;;;;;;;2.88;100.00;95708.25;4988729;28;105833;-62
2023/03/15 02:22:23;;;;;;;2.60;1.00;;;;;;;2.90;100.00;95721.97;4988379;28;101853;-62
2023/03/15 02:25:03;;;;;;;1.40;1.10;;;;;;;2.94;100.00;95712.63;4992256;28;104809;-62
2023/03/15 02:27:34;;;;;;;2.37;1.00;;;;;;;2.99;100.00;95729.34;4950127;28;101838;-62
2023/03/15 02:30:03;;;;;;;1.43;1.10;;;;;;;3.05;100.00;95736.34;4956350;28;105241;-62
2023/03/15 02:32:30;;;;;;;1.53;0.93;;;;;;;3.03;100.00;95745.47;4987049;28;105787;-62
2023/03/15 02:34:57;;;;;;;1.00;0.90;;;;;;;3.06;100.00;95758.16;4986502;28;102018;-62
2023/03/15 02:37:24;;;;;;;0.80;0.80;;;;;;;3.07;100.00;95750.03;4969245;28;105146;-62
2023/03/15 02:39:53;;;;;;;0.90;0.70;;;;;;;3.08;100.00;95754.31;4969291;28;106882;-62
2023/03/15 02:42:20;;;;;;;0.80;0.80;;;;;;;3.07;100.00;95757.91;4969393;28;102519;-62
2023/03/15 02:44:51;;;;;;;1.03;0.90;;;;;;;3.06;100.00;95763.41;4970501;28;102823;-62
2023/03/15 02:47:22;;;;;;;1.03;0.77;;;;;;;3.07;100.00;95771.06;4972083;28;105568;-62
2023/03/15 02:49:52;;;;;;;0.60;0.60;;;;;;;3.05;100.00;95777.56;4969292;28;103815;-62
2023/03/15 02:52:19;;;;;;;3.40;0.70;;;;;;;3.06;100.00;95779.19;4969536;28;104673;-62
2023/03/15 02:54:46;;;;;;;0.70;0.70;;;;;;;3.09;100.00;95778.72;4970028;28;102070;-62
2023/03/15 02:57:15;;;;;;;0.97;0.70;;;;;;;3.05;100.00;95780.19;4969045;28;105572;-62
2023/03/15 02:59:43;;;;;;;1.73;1.10;;;;;;;3.05;100.00;95788.06;4981472;28;105728;-62
2023/03/15 03:02:12;;;;;;;0.70;0.70;;;;;;;3.04;100.00;95802.22;4988406;28;101906;-62
2023/03/15 03:04:41;;;;;;;0.93;0.70;;;;;;;3.09;100.00;95797.94;4971015;28;103610;-62
2023/03/15 03:07:08;;;;;;;1.27;0.70;;;;;;;3.04;100.00;95797.78;4949019;28;103732;-62
2023/03/15 03:09:46;;;;;;;0.83;0.70;;;;;;;3.04;100.00;95796.97;4952679;28;101744;-62
2023/03/15 03:12:14;;;;;;;1.00;0.80;;;;;;;3.06;100.00;95802.81;4950216;28;102614;-62
2023/03/15 03:14:42;;;;;;;0.60;0.60;;;;;;;3.05;100.00;95803.81;4949423;28;102244;-62
2023/03/15 03:17:15;;;;;;;2.27;0.70;;;;;;;3.09;100.00;95811.06;4949174;28;104836;-62
2023/03/15 03:19:42;;;;;;;1.23;0.80;;;;;;;3.09;100.00;95815.50;4973221;28;103725;-62
2023/03/15 03:22:12;;;;;;;0.90;0.80;;;;;;;3.10;100.00;95814.47;4966098;28;102010;-62
2023/03/15 03:24:44;;;;;;;4.40;1.10;;;;;;;3.13;100.00;95819.31;4988668;28;105330;-62
2023/03/15 03:27:13;;;;;;;1.97;0.80;;;;;;;3.11;100.00;95827.38;4989286;28;102434;-62
2023/03/15 03:29:41;;;;;;;0.80;0.80;;;;;;;3.08;100.00;95832.28;4991825;28;101953;-62
2023/03/15 03:32:11;;;;;;;1.67;0.90;;;;;;;3.12;100.00;95841.34;4987864;28;105654;-62
2023/03/15 03:34:39;;;;;;;0.70;0.70;;;;;;;3.09;100.00;95837.31;4992160;28;101964;-62
2023/03/15 03:37:07;;;;;;;0.80;0.80;;;;;;;3.12;100.00;95852.63;4990096;28;104817;-62
2023/03/15 03:40:00;;;;;;;0.70;0.70;;;;;;;3.08;100.00;95855.91;4976992;28;103418;-62
2023/03/15 03:42:27;;;;;;;0.60;0.60;;;;;;;3.08;100.00;95867.25;4975443;28;101939;-62
2023/03/15 03:44:54;;;;;;;0.70;0.70;;;;;;;3.05;100.00;95866.84;4984633;28;103904;-62
2023/03/15 03:47:22;;;;;;;0.60;0.60;;;;;;;3.08;100.00;95876.94;4971462;28;105161;-62
2023/03/15 03:49:51;;;;;;;0.70;0.70;;;;;;;3.10;100.00;95880.94;4968906;28;101858;-62
2023/03/15 03:52:18;;;;;;;0.80;0.80;;;;;;;3.09;100.00;95881.16;4969724;28;104811;-62
2023/03/15 03:54:47;;;;;;;0.97;0.80;;;;;;;3.03;100.00;95879.41;4964371;28;102120;-62
2023/03/15 03:57:13;;;;;;;0.70;0.70;;;;;;;3.05;100.00;95893.09;4991690;28;105314;-61
2023/03/15 03:59:40;;;;;;;0.70;0.70;;;;;;;3.03;100.00;95903.03;4981239;28;104992;-62
2023/03/15 04:02:09;;;;;;;1.37;0.90;;;;;;;3.02;100.00;95922.44;4952037;28;101938;-62
2023/03/15 04:04:39;;;;;;;1.30;1.20;;;;;;;2.96;100.00;95936.44;4959702;28;105587;-62
2023/03/15 04:07:11;;;;;;;1.80;1.10;;;;;;;2.87;100.00;95949.03;4976385;28;105116;-62
2023/03/15 04:09:40;;;;;;;0.80;0.80;;;;;;;2.81;100.00;95964.81;4951846;28;101932;-62
2023/03/15 04:12:08;;;;;;;1.13;1.03;;;;;;;2.69;100.00;95972.56;4966215;28;105146;-62
2023/03/15 04:14:37;;;;;;;1.23;1.00;;;;;;;2.62;100.00;95965.75;4993599;28;105331;-62
2023/03/15 04:17:07;;;;;;;2.17;1.50;;;;;;;2.50;100.00;95994.50;4990962;28;104907;-62
2023/03/15 04:19:35;;;;;;;1.13;1.13;;;;;;;2.41;100.00;95995.72;4990634;28;105144;-62
2023/03/15 04:22:05;;;;;;;1.30;1.20;;;;;;;2.19;100.00;96012.00;4990675;28;101834;-62
2023/03/15 04:25:00;;;;;;;2.10;1.30;;;;;;;2.06;100.00;96012.03;4980849;28;103427;-62
2023/03/15 04:27:58;;;;;;;1.10;1.10;;;;;;;1.85;100.00;96030.63;4949421;28;102613;-62
2023/03/15 04:30:45;;;;;;;2.00;1.30;;;;;;;1.65;100.00;96035.13;4960384;28;101751;-62
2023/03/15 04:33:23;;;;;;;1.93;1.77;;;;;;;1.62;100.00;96046.00;4972861;28;102551;-62
2023/03/15 04:36:08;;;;;;;2.33;1.60;;;;;;;1.61;100.00;96065.34;4971882;28;103708;-62
2023/03/15 04:38:45;;;;;;;2.57;1.70;;;;;;;1.62;100.00;96065.16;4974080;28;101945;-62
2023/03/15 04:41:30;;;;;;;3.10;1.90;;;;;;;1.58;100.00;96076.25;4952324;28;102832;-62
2023/03/15 04:44:04;;;;;;;3.27;2.17;;;;;;;1.58;100.00;96086.72;4955412;28;101933;-62
2023/03/15 04:46:56;;;;;;;3.07;1.87;;;;;;;1.61;100.00;96086.31;4951147;28;105354;-62
2023/03/15 04:49:42;;;;;;;3.20;1.97;;;;;;;1.65;100.00;96103.25;4959157;28;102237;-62
2023/03/15 04:52:32;;;;;;;3.30;2.00;;;;;;;1.68;100.00;96102.84;4968363;28;101901;-62
2023/03/15 04:55:17;;;;;;;2.37;2.13;;;;;;;1.72;100.00;96109.28;4969586;28;101645;-62
2023/03/15 04:58:07;;;;;;;4.97;2.07;;;;;;;1.69;100.00;96114.94;4970356;28;105458;-62
2023/03/15 05:01:06;;;;;;;3.93;2.00;;;;;;;1.71;100.00;96118.16;4984144;28;101826;-62
2023/03/15 05:04:05;;;;;;;3.60;2.03;;;;;;;1.76;100.00;96119.16;4981030;28;102393;-62
2023/03/15 05:06:48;;;;;;;3.30;1.97;;;;;;;1.76;100.00;96123.59;4988975;28;102383;-62
2023/03/15 05:09:45;;;;;;;2.77;2.10;;;;;;;1.76;100.00;96134.88;4971412;28;102467;-62
2023/03/15 05:12:38;;;;;;;2.40;2.10;;;;;;;1.70;100.00;96146.19;4988249;28;103404;-62
2023/03/15 05:15:36;;;;;;;2.17;1.70;;;;;;;1.45;100.00;96149.59;4971143;28;102372;-62
2023/03/15 05:18:20;;;;;;;2.93;2.10;;;;;;;1.39;100.00;96150.38;4989875;28;105401;-62
2023/03/15 05:21:26;;;;;;;3.17;2.40;;;;;;;1.31;100.00;96166.31;4950110;28;103040;-62
2023/03/15 05:24:02;;;;;;;2.37;2.17;;;;;;;1.17;100.00;96168.09;4990092;28;101763;-62
2023/03/15 05:26:46;;;;;;;4.33;2.70;;;;;;;1.15;100.00;96182.38;4988416;28;105130;-62
2023/03/15 05:29:38;;;;;;;3.27;2.20;;;;;;;1.07;100.00;96195.63;4992683;28;101851;-62
2023/03/15 05:32:25;;;;;;;2.23;2.03;;;;;;;1.01;100.00;96202.47;4987925;28;101788;-62
2023/03/15 05:35:12;;;;;;;2.03;1.90;;;;;;;0.95;100.00;96211.13;4989157;28;104994;-62
2023/03/15 05:37:58;;;;;;;2.30;2.10;;;;;;;0.95;100.00;96212.91;4988303;28;101645;-62
2023/03/15 05:40:46;;;;;;;3.47;2.20;;;;;;;0.98;100.00;96222.97;4978987;28;102516;-62
2023/03/15 05:43:32;;;;;;;2.70;2.50;;;;;;;1.01;100.00;96220.81;4988088;28;102212;-62
2023/03/15 05:46:17;;;;;;;2.50;2.30;;;;;;;1.03;100.00;96234.50;4986740;28;101843;-62
2023/03/15 05:48:59;;;;;;;4.07;2.47;;;;;;;1.12;100.00;96240.38;4989928;28;104851;-62
2023/03/15 05:51:40;;;;;;;2.77;2.47;;;;;;;1.13;100.00;96250.66;4992359;28;105908;-62
2023/03/15 05:54:20;;;;;;;2.97;2.23;;;;;;;1.20;100.00;96250.69;4989734;28;105169;-62
2023/03/15 05:57:10;;;;;;;2.93;2.53;;;;;;;1.26;100.00;96260.38;4950013;28;102995;-62
2023/03/15 05:59:53;;;;;;;5.70;2.53;;;;;;;1.31;100.00;96261.38;4951198;28;101862;-62
2023/03/15 06:02:38;;;;;;;3.60;2.53;;;;;;;1.32;100.00;96270.06;4969019;28;102217;-62
2023/03/15 06:05:27;;;;;;;2.70;2.17;;;;;;;1.32;100.00;96276.09;4966017;28;102825;-62
2023/03/15 06:07:57;;;;;;;2.97;2.47;;;;;;;1.37;100.00;96278.94;4969587;28;101985;-62
2023/03/15 06:10:25;;;;;;;3.77;2.13;;;;;;;1.28;100.00;96281.94;4974159;28;105721;-62
2023/03/15 06:12:54;;;;;;;2.90;2.70;;;;;;;1.43;100.00;96282.59;4988934;28;105085;-62
2023/03/15 06:15:23;;;;;;;3.60;2.33;;;;;;;1.46;100.00;96287.44;4985927;28;102020;-62
2023/03/15 06:17:52;;;;;;;4.20;3.00;;;;;;;1.34;100.00;96291.63;4968880;28;105233;-62
2023/03/15 06:20:19;;;;;;;3.90;3.10;;;;;;;1.31;100.00;96307.75;4969423;28;101948;-62
2023/03/15 06:22:48;;;;;;;5.73;3.50;;;;;;;1.33;100.00;96317.03;4970597;28;102553;-62
2023/03/15 06:25:26;;;;;;;4.40;3.23;;;;;;;1.20;100.00;96326.63;4965624;28;105069;-62
2023/03/15 06:27:53;;;;;;;4.80;3.37;;;;;;;1.21;100.00;96325.63;4949856;28;101942;-62
2023/03/15 06:30:21;;;;;;;5.50;3.80;;;;;;;1.20;100.00;96330.03;4963120;28;105589;-62
2023/03/15 06:32:50;;;;;;;5.20;3.83;;;;;;;1.17;100.00;96343.53;4968698;28;104167;-62
2023/03/15 06:35:19;;;;;;;3.43;3.13;;;;;;;1.14;100.00;96345.72;4966928;28;101868;-62
2023/03/15 06:37:48;;;;;;;4.33;2.97;;;;;;;1.08;100.00;96356.97;4952341;28;104771;-62
2023/03/15 06:40:16;;;;;;;5.00;3.27;;;;;;;1.11;100.00;96346.13;4975008;28;102065;-62
2023/03/15 06:42:44;;;;;;;5.13;3.80;;;;;;;1.14;100.00;96361.41;4989094;28;105119;-62
2023/03/15 06:45:15;;;;;;;3.43;2.70;;;;;;;1.10;100.00;96360.22;4977419;28;103129;-62
2023/03/15 06:47:42;;;;;;;8.00;3.37;;;;;;;1.17;100.00;96363.66;4982634;28;102177;-62
2023/03/15 06:50:11;;;;;;;5.90;3.70;;;;;;;1.18;100.00;96373.13;4973995;28;104835;-62
2023/03/15 06:52:38;;;;;;;5.03;3.27;;;;;;;1.14;100.00;96377.13;4982114;28;104302;-62
2023/03/15 06:55:09;;;;;;;5.07;2.70;;;;;;;1.16;100.00;96375.94;4987521;28;101917;-62
2023/03/15 06:57:36;;;;;;;5.50;3.40;;;;;;;1.30;100.00;96376.81;4966219;28;105038;-62
2023/03/15 07:00:10;;;;;;;5.80;3.23;;;;;;;1.45;100.00;96380.97;4961148;28;103034;-62
2023/03/15 07:02:37;;;;;;;7.10;3.63;;;;;;;1.31;100.00;96384.50;4970113;28;102283;-62
2023/03/15 07:05:05;;;;;;;7.73;3.30;;;;;;;1.29;100.00;96391.75;4969675;28;102527;-62
2023/03/15 07:07:32;;;;;;;9.13;4.13;;;;;;;1.35;100.00;96390.97;4969552;28;101835;-62
2023/03/15 07:09:59;;;;;;;8.07;4.40;;;;;;;1.40;100.00;96400.88;4965218;28;105467;-62
2023/03/15 07:12:27;;;;;;;9.80;5.03;;;;;;;1.40;100.00;96403.50;4953359;28;102595;-62
2023/03/15 07:14:55;;;;;;;6.73;3.60;;;;;;;1.37;100.00;96409.13;4970111;28;101934;-62
2023/03/15 07:17:22;;;;;;;8.13;4.07;;;;;;;1.53;100.00;96403.56;4980458;28;105754;-62
2023/03/15 07:19:50;;;;;;;7.27;3.80;;;;;;;1.61;100.00;96400.78;4969549;28;102728;-62
2023/03/15 07:22:17;;;;;;;5.40;3.87;;;;;;;1.70;100.00;96407.50;4983587;28;102154;-62
2023/03/15 07:24:44;;;;;;;5.13;3.40;;;;;;;1.75;100.00;96413.75;4987658;28;105875;-63
2023/03/15 07:27:12;;;;;;;5.27;3.47;;;;;;;1.83;100.00;96416.22;4957815;28;102452;-63
2023/03/15 07:29:41;;;;;;;10.43;4.37;;;;;;;1.88;100.00;96418.25;4958087;28;105188;-63
2023/03/15 07:32:08;;;;;;;6.53;4.20;;;;;;;1.81;100.00;96410.34;4965014;28;105762;-63
2023/03/15 07:34:35;;;;;;;7.60;3.83;;;;;;;1.82;100.00;96413.78;4969249;28;101822;-63
2023/03/15 07:37:02;;;;;;;5.97;3.73;;;;;;;1.99;100.00;96415.88;4968810;28;102864;-62
2023/03/15 07:39:31;;;;;;;6.87;3.60;;;;;;;2.13;100.00;96414.09;4967342;28;105753;-62
2023/03/15 07:41:58;;;;;;;6.77;3.50;;;;;;;2.17;100.00;96420.56;4971234;28;101979;-63
2023/03/15 07:44:31;;;;;;;6.73;3.40;;;;;;;2.13;100.00;96421.97;4967288;28;105347;-64
2023/03/15 07:47:00;;;;;;;5.47;3.27;;;;;;;2.20;100.00;96428.03;4966959;28;102293;-63
2023/03/15 07:49:27;;;;;;;5.70;3.20;;;;;;;2.10;100.00;96427.59;4969224;28;102513;-64
2023/03/15 07:51:53;;;;;;;5.87;3.30;;;;;;;2.00;100.00;96424.53;4971956;28;102570;-63
2023/03/15 07:54:28;;;;;;;6.63;3.67;;;;;;;2.02;100.00;96425.16;4960691;28;103302;-63
2023/03/15 07:56:55;;;;;;;3.97;3.50;;;;;;;2.09;100.00;96426.00;4959409;28;102605;-63
2023/03/15 07:59:22;;;;;;;8.40;4.03;;;;;;;2.09;100.00;96432.03;4979233;28;103080;-63
2023/03/15 08:01:48;;;;;;;6.90;4.53;;;;;;;2.42;100.00;96421.63;4980493;28;103190;-64
2023/03/15 08:04:18;;;;;;;5.67;4.13;;;;;;;2.70;100.00;96425.72;4981586;28;102382;-63
2023/03/15 08:06:45;;;;;;;5.73;4.17;;;;;;;2.85;100.00;96420.28;4970518;28;102085;-63
2023/03/15 08:09:12;;;;;;;4.97;4.40;;;;;;;2.99;100.00;96419.25;4969701;28;102464;-63
2023/03/15 08:11:39;;;;;;;8.87;4.40;;;;;;;2.86;100.00;96422.72;4977108;28;102587;-63
2023/03/15 08:14:08;;;;;;;5.30;4.37;;;;;;;2.89;100.00;96424.13;4965976;28;102191;-63
2023/03/15 08:16:35;;;;;;;7.33;3.70;;;;;;;3.26;100.00;96424.28;4973486;28;105666;-63
2023/03/15 08:19:02;;;;;;;7.57;3.50;;;;;;;3.45;100.00;96410.31;4954452;28;105449;-62
2023/03/15 08:21:32;;;;;;;7.13;4.93;;;;;;;3.51;100.00;96411.31;4981504;28;102007;-62
2023/03/15 08:23:59;;;;;;;5.70;4.07;;;;;;;3.76;100.00;96412.28;4989268;28;103984;-63
2023/03/15 08:26:26;;;;;;;5.47;4.30;;;;;;;3.39;100.00;96410.34;4982727;28;105430;-63
2023/03/15 08:28:53;;;;;;;6.20;3.83;;;;;;;3.30;100.00;96409.75;4982826;28;102585;-63
2023/03/15 08:31:20;;;;;;;6.37;4.10;;;;;;;3.17;100.00;96414.22;4970916;28;105558;-63
2023/03/15 08:33:47;;;;;;;4.30;3.57;;;;;;;3.14;100.00;96414.59;4988861;28;102159;-63
2023/03/15 08:36:14;;;;;;;3.73;3.40;;;;;;;3.05;100.00;96413.19;4973005;28;104833;-62
2023/03/15 08:38:43;;;;;;;5.60;3.70;;;;;;;3.31;100.00;96413.16;4971946;28;103158;-63
2023/03/15 08:41:09;;;;;;;7.80;4.00;;;;;;;3.24;100.00;96412.38;4967995;28;101887;-63
2023/03/15 08:43:40;;;;;;;6.10;3.50;;;;;;;3.28;100.00;96408.34;4951869;28;104811;-63
2023/03/15 08:46:07;;;;;;;6.60;3.77;;;;;;;3.31;100.00;96402.66;4958547;28;105309;-63
2023/03/15 08:48:34;;;;;;;4.27;3.50;;;;;;;3.23;100.00;96405.50;4974903;28;101927;-62
2023/03/15 08:51:05;;;;;;;4.57;3.07;;;;;;;3.03;100.00;96402.91;4970518;28;105276;-63
2023/03/15 08:53:33;;;;;;;3.90;3.00;;;;;;;3.08;100.00;96407.53;4972168;28;101884;-63
2023/03/15 08:56:02;;;;;;;5.30;3.67;;;;;;;3.24;100.00;96401.88;4980719;28;105962;-63
2023/03/15 08:58:29;;;;;;;4.83;3.33;;;;;;;3.10;100.00;96402.88;4977571;28;105393;-64
2023/03/15 09:00:56;;;;;;;3.60;3.23;;;;;;;3.10;100.00;96408.94;4955985;28;101933;-63
2023/03/15 09:03:23;;;;;;;5.47;3.37;;;;;;;3.15;100.00;96403.06;4970985;28;104011;-63
2023/03/15 09:05:50;;;;;;;5.67;4.23;;;;;;;3.16;100.00;96404.72;4971420;28;104963;-63
2023/03/15 09:08:19;;;;;;;4.00;3.50;;;;;;;3.28;100.00;96409.13;4982665;28;101934;-63
2023/03/15 09:10:46;;;;;;;4.57;3.20;;;;;;;3.79;100.00;96393.44;4974603;28;105079;-64
2023/03/15 09:13:21;;;;;;;5.20;3.17;;;;;;;4.08;100.00;96388.44;4969354;28;102321;-63
2023/03/15 09:15:50;;;;;;;4.50;3.30;;;;;;;3.91;100.00;96395.22;4978493;28;105113;-63
2023/03/15 09:18:16;;;;;;;3.77;3.47;;;;;;;3.70;100.00;96392.03;4979922;28;105124;-63
2023/03/15 09:20:44;;;;;;;3.83;3.33;;;;;;;3.95;100.00;96400.84;4973986;28;101909;-63
2023/03/15 09:23:11;;;;;;;5.23;3.40;;;;;;;4.11;100.00;96395.13;4950748;28;105283;-62
2023/03/15 09:25:37;;;;;;;4.77;3.17;;;;;;;4.14;100.00;96389.44;4963892;28;105294;-62
2023/03/15 09:28:05;;;;;;;4.20;3.20;;;;;;;4.16;100.00;96382.94;4977342;28;101887;-62
2023/03/15 09:30:34;;;;;;;3.03;2.73;;;;;;;4.41;100.00;96389.06;4981466;28;105185;-62
2023/03/15 09:33:00;;;;;;;6.40;3.10;;;;;;;4.32;100.00;96382.44;4972310;28;105415;-62
2023/03/15 09:35:28;;;;;;;4.97;3.20;;;;;;;4.29;100.00;96384.69;4974553;28;104940;-62
2023/03/15 09:37:55;;;;;;;3.60;3.13;;;;;;;4.48;100.00;96381.94;4969647;28;105322;-63
2023/03/15 09:40:26;;;;;;;4.00;2.87;;;;;;;4.73;100.00;96379.31;4970334;28;101973;-63
2023/03/15 09:43:25;;;;;;;4.30;2.97;;;;;;;5.12;100.00;96390.34;4971512;28;102532;-62
2023/03/15 09:46:06;;;;;;;2.77;2.57;;;;;;;5.18;100.00;96384.22;4968508;28;105100;-62
2023/03/15 09:48:36;;;;;;;3.03;2.80;;;;;;;5.34;100.00;96383.66;4969277;28;101878;-62
2023/03/15 09:51:08;;;;;;;2.60;2.40;;;;;;;5.04;100.00;96381.91;4969915;28;103901;-62
2023/03/15 09:53:41;;;;;;;3.00;2.37;;;;;;;5.36;100.00;96380.81;4972155;28;105368;-62
2023/03/15 09:56:22;;;;;;;4.30;2.47;;;;;;;5.73;100.00;96382.47;4968485;28;104929;-62
2023/03/15 09:58:52;;;;;;;3.63;2.70;;;;;;;5.74;100.00;96391.97;4968528;28;105507;-63
2023/03/15 10:01:28;;;;;;;3.17;2.80;;;;;;;5.63;100.00;96384.78;4969368;28;101892;-63
2023/03/15 10:03:56;;;;;;;5.07;2.90;;;;;;;5.31;100.00;96394.66;4968772;28;104856;-63
2023/03/15 10:06:26;;;;;;;4.67;2.70;;;;;;;5.29;100.00;96395.91;4968289;28;106041;-62
2023/03/15 10:08:56;;;;;;;2.40;2.20;;;;;;;4.76;100.00;96400.78;4970529;28;101808;-63
2023/03/15 10:11:31;;;;;;;2.30;1.87;;;;;;;4.83;100.00;96401.56;4970329;28;104017;-62
2023/03/15 10:14:13;;;;;;;4.20;2.20;;;;;;;4.67;100.00;96401.25;4968367;28;105678;-63
2023/03/15 10:16:43;;;;;;;3.13;2.00;;;;;;;4.72;100.00;96402.25;4973831;28;102296;-63
2023/03/15 10:19:25;;;;;;;2.57;1.97;;;;;;;5.20;100.00;96402.47;4969439;28;102689;-62
2023/03/15 10:21:57;;;;;;;2.27;2.00;;;;;;;5.63;100.00;96395.34;4958336;28;101854;-62
2023/03/15 10:24:34;;;;;;;2.03;1.90;;;;;;;5.34;100.00;96393.44;4978907;28;102282;-63
2023/03/15 10:27:16;;;;;;;3.73;2.10;;;;;;;5.15;100.00;96395.22;4977839;28;102847;-62
2023/03/15 10:29:44;;;;;;;4.83;2.20;;;;;;;5.81;100.00;96393.56;4972231;28;101991;-62
2023/03/15 10:32:18;;;;;;;2.60;2.00;;;;;;;5.96;100.00;96393.19;4967345;28;105455;-64
2023/03/15 10:34:53;;;;;;;2.40;2.20;;;;;;;6.06;100.00;96402.16;4951343;28;101955;-63
2023/03/15 10:37:22;;;;;;;4.13;1.83;;;;;;;6.06;100.00;96401.38;4975419;28;102011;-63
2023/03/15 10:39:54;;;;;;;2.37;1.77;;;;;;;6.11;85.26;96380.41;4976880;28;102553;-63
2023/03/15 10:42:26;;;;;;;4.23;2.00;;;;;;;6.08;95.69;96389.56;4980984;28;102040;-63
2023/03/15 10:44:54;;;;;;;2.40;1.90;;;;;;;5.82;98.83;96387.25;4982006;28;102386;-64
2023/03/15 10:47:23;;;;;;;5.33;2.40;;;;;;;6.08;100.00;96381.66;4980949;28;105765;-63
2023/03/15 10:49:55;;;;;;;2.90;1.87;;;;;;;5.78;100.00;96390.53;4989428;28;101910;-63
2023/03/15 10:52:37;;;;;;;4.00;2.20;;;;;;;5.75;100.00;96389.13;4989181;28;103143;-63
2023/03/15 10:55:07;;;;;;;2.47;2.27;;;;;;;5.97;100.00;96392.97;4989860;28;103116;-63
2023/03/15 10:57:38;;;;;;;4.10;2.67;;;;;;;5.81;100.00;96390.09;4973443;28;101905;-63
2023/03/15 11:00:22;;;;;;;2.73;2.20;;;;;;;5.80;100.00;96391.13;4989258;28;105352;-63
2023/03/15 11:02:52;;;;;;;2.33;2.13;;;;;;;6.03;99.93;96392.06;4990052;28;104358;-63
2023/03/15 11:05:20;;;;;;;1.90;1.80;;;;;;;6.23;100.00;96394.47;4990163;28;103698;-63
2023/03/15 11:07:55;;;;;;;1.70;1.60;;;;;;;5.57;78.49;96393.59;4977935;28;104569;-62
2023/03/15 11:10:24;;;;;;;1.60;1.50;;;;;;;5.69;86.46;96387.38;4969041;28;101904;-62
2023/03/15 11:13:14;;;;;;;1.90;1.80;;;;;;;5.73;90.80;96399.06;4970743;28;102506;-62
2023/03/15 11:15:48;;;;;;;2.43;1.80;;;;;;;5.61;80.69;96389.47;4963126;28;105532;-63
2023/03/15 11:18:20;;;;;;;3.83;1.90;;;;;;;5.14;71.91;96385.66;4958222;28;102056;-64
2023/03/15 11:20:47;;;;;;;2.77;1.80;;;;;;;4.98;77.59;96393.31;4990323;28;103014;-63
2023/03/15 11:23:28;;;;;;;4.87;1.90;;;;;;;5.24;83.42;96388.63;4987230;28;101978;-63
2023/03/15 11:25:56;;;;;;;1.63;1.53;;;;;;;5.63;75.81;96390.06;4977333;28;102319;-63
2023/03/15 11:28:27;;;;;;;2.50;1.70;;;;;;;6.17;69.62;96380.31;4971685;28;102766;-63
2023/03/15 11:30:58;;;;;;;4.40;2.30;;;;;;;6.64;63.44;96373.34;4986059;28;102015;-63
2023/03/15 11:33:46;;;;;;;1.83;1.60;;;;;;;7.07;56.74;96376.53;4962717;28;105550;-63
2023/03/15 11:36:17;;;;;;;1.57;1.47;;;;;;;6.88;53.64;96369.75;4983244;28;102833;-63
2023/03/15 11:38:45;;;;;;;3.33;1.50;;;;;;;7.26;53.77;96364.84;4971555;28;101980;-63
2023/03/15 11:41:22;;;;;;;2.17;1.23;;;;;;;6.85;50.90;96370.19;4960897;28;103324;-63
2023/03/15 11:44:06;;;;;;;1.70;1.60;;;;;;;6.72;51.65;96373.03;4977046;28;102540;-63
2023/03/15 11:46:41;;;;;;;5.60;1.40;;;;;;;7.25;49.47;96365.88;4968257;28;101744;-63
2023/03/15 11:49:15;;;;;;;3.03;1.50;;;;;;;7.48;48.96;96358.72;4992741;28;102333;-63